Stockbridge, Michigan
Current Conditions -  °F | °C
As of 12:12 AM on Friday 31 Oct 2014 (Local Time) from KTEW Reporting Station
Overcast Overcast  
Wind Chill: 44°   Ceiling: 4300
Heat Index: 44°   Visibility: 10mi
Dew Point: 36°   Wind: 0mph
Humidity: 75%   Direction: NA
Pressure: 29.99"   Gusts: NA
Location:  42.45°N, 84.18°W
Report Text: KTEW 310412Z AUTO 00000KT 10SM OVC043 07/02 A2999 RMK AO2 T00650023
Loading
Personal Weather Stations






























Interactive Weather Map
Tropical Storm Tracking
New forecast layout! Learn more

10-Day Weather Forecast

Advertisements
Track Severe Weather on mobile